Главная страница
METAR-TAF:

METAR-TAF

Аэропорты :

Шереметьево

Москва-Шереметьево, Россия

широта: 55-58N, долгота: 037-25E, высота над уровнем моря: 190 м

Текущие метеонаблюдения

Эта сводка был подготовлена 31 минут назад, в 02:00 UTC
Ветер 4 Узел от южный-юго-западный
Температура 5°C
Влажность 100%
Давление 1026 hPa
Видимость: 9000 м

METAR: UUEE 160200Z 21002MPS 9000 NSC 05/05 Q1026 R24L/CLRD62 NOSIG

Время: 05:31 (02:31 UTC)

Прогноз

Эта сводка был подготовлена 3 часа и 36 минут назад, в 22:55 UTC
Прогноз действительный с 16-го 00 UTC до 16-го 24 UTC
Ветер 6 Узел от западный-юго-западный
Видимость: 3100 м
небольшая облачность на высоте 600 фута
дымка
временами
С 16-го 00 UTC до 16-го 06 UTC
Видимость: 0300 м
на высоте 100 фута
туман
изменения
С 16-го 06 UTC до 16-го 08 UTC
Видимость 10 км и более
Отдельные облака на высоте 3000 фута

TAF: UUEE 152255Z 1600/1624 24003MPS 3100 BR FEW006 TX16/1612Z TN06/1603Z TEMPO 1600/1606 0300 FG VV001 BECMG 1606/1608 9999 NSW SCT030

Метеонаблюдения и прогнозы для более 4000 аэропортов (сводки METAR и TAF).

Имеющиеся станции представлены на карте желтыми и красными точками.

Чтобы увидеть название станции, наведите на нее мышь.

Затем щелкните, чтобы увидеть метеонаблюдения и метеопрогнозы.

Управление картой: чтобы увеличить масштаб, щелкните зеленые кнопки с черным крестиком; чтобы уменьшить масштаб, щелкните зеленую кнопку с тире; для просмотра соседних карт щелкайте зеленые стрелки.


METAR-TAF: